createdAt,value
2019-05-26T00:02:45.037Z,16.07
2019-05-26T00:05:32.883Z,17.63
2019-05-26T00:08:20.581Z,18.83
2019-05-26T00:11:08.718Z,18.83
2019-05-26T00:13:56.573Z,18.63
2019-05-26T00:16:44.256Z,17.50
2019-05-26T00:19:32.211Z,16.37
2019-05-26T00:22:20.239Z,15.97
2019-05-26T00:25:08.849Z,18.83
2019-05-26T00:27:56.618Z,17.03
2019-05-26T00:30:44.498Z,18.87
2019-05-26T00:33:32.325Z,16.03
2019-05-26T00:36:20.178Z,17.20
2019-05-26T00:39:07.902Z,21.73
2019-05-26T00:41:55.749Z,20.43
2019-05-26T00:44:43.590Z,22.47
2019-05-26T00:47:31.465Z,20.17
2019-05-26T00:50:19.497Z,20.33
2019-05-26T00:53:07.289Z,18.30
2019-05-26T00:55:54.989Z,21.13
2019-05-26T00:58:43.046Z,20.17
2019-05-26T01:01:30.696Z,19.47
2019-05-26T01:04:18.727Z,22.27
2019-05-26T01:07:06.658Z,17.03
2019-05-26T01:09:54.453Z,18.97
2019-05-26T01:12:42.310Z,18.00
2019-05-26T01:15:30.136Z,18.17
2019-05-26T01:18:18.165Z,14.87
2019-05-26T01:21:05.641Z,18.23
2019-05-26T01:23:53.614Z,18.57
2019-05-26T01:26:41.725Z,16.03
2019-05-26T01:29:29.420Z,18.07
2019-05-26T01:32:17.311Z,17.43
2019-05-26T01:35:07.633Z,18.60
2019-05-26T01:37:55.589Z,19.77
2019-05-26T01:40:44.465Z,20.87
2019-05-26T01:43:31.973Z,17.10
2019-05-26T01:46:19.883Z,18.90
2019-05-26T01:49:07.682Z,19.20
2019-05-26T01:51:55.820Z,19.53
2019-05-26T01:54:43.528Z,20.07
2019-05-26T01:57:31.398Z,19.67
2019-05-26T02:00:19.489Z,18.17
2019-05-26T02:03:07.312Z,18.03
2019-05-26T02:05:55.258Z,21.50
2019-05-26T02:08:43.222Z,19.47
2019-05-26T02:11:31.204Z,19.17
2019-05-26T02:14:19.210Z,20.50
2019-05-26T02:17:06.853Z,19.30
2019-05-26T02:19:54.698Z,19.43
2019-05-26T02:22:42.517Z,17.73
2019-05-26T02:25:30.370Z,19.70
2019-05-26T02:28:17.931Z,16.63
2019-05-26T02:31:05.899Z,17.50
2019-05-26T02:33:53.723Z,16.90
2019-05-26T02:36:41.702Z,15.57
2019-05-26T02:39:29.605Z,19.07
2019-05-26T02:42:17.556Z,17.67
2019-05-26T02:45:08.505Z,19.37
2019-05-26T02:47:56.643Z,19.50
2019-05-26T02:50:44.764Z,17.73
2019-05-26T02:53:32.705Z,17.07
2019-05-26T02:56:21.225Z,19.30
2019-05-26T02:59:09.014Z,20.73
2019-05-26T03:02:03.554Z,18.10
2019-05-26T03:04:47.647Z,18.07
2019-05-26T03:07:37.934Z,17.70
2019-05-26T03:10:25.641Z,17.37
2019-05-26T03:13:15.039Z,17.97
2019-05-26T03:16:04.691Z,18.40
2019-05-26T03:18:52.803Z,17.20
2019-05-26T03:21:42.509Z,18.77
2019-05-26T03:24:31.758Z,18.67
2019-05-26T03:27:19.739Z,19.73
2019-05-26T03:30:08.642Z,18.60
2019-05-26T03:32:56.610Z,23.27
2019-05-26T03:35:44.519Z,19.83
2019-05-26T03:38:32.511Z,19.63
2019-05-26T03:41:20.229Z,17.93
2019-05-26T03:44:08.453Z,16.10
2019-05-26T03:46:56.090Z,15.53
2019-05-26T03:49:43.750Z,19.50
2019-05-26T03:52:31.589Z,16.73
2019-05-26T03:55:19.628Z,18.03
2019-05-26T03:58:07.555Z,19.00
2019-05-26T04:00:55.373Z,18.27
2019-05-26T04:03:43.386Z,18.10
2019-05-26T04:06:31.385Z,24.33
2019-05-26T04:09:19.237Z,20.13
2019-05-26T04:12:07.066Z,23.37
2019-05-26T04:14:55.082Z,25.60
2019-05-26T04:17:43.047Z,23.23
2019-05-26T04:20:30.968Z,21.47
2019-05-26T04:23:18.641Z,21.10
2019-05-26T04:26:06.631Z,18.90
2019-05-26T04:28:54.449Z,20.00
2019-05-26T04:31:42.122Z,21.70
2019-05-26T04:34:30.115Z,25.47
2019-05-26T04:37:18.170Z,22.10
2019-05-26T04:40:25.605Z,25.17
2019-05-26T04:42:59.370Z,24.07
2019-05-26T04:45:46.926Z,24.93
2019-05-26T04:48:34.794Z,23.00
2019-05-26T04:51:22.843Z,22.53
2019-05-26T04:54:10.885Z,21.73
2019-05-26T04:56:58.855Z,24.37
2019-05-26T04:59:46.530Z,22.47
2019-05-26T05:02:34.534Z,21.47
2019-05-26T05:05:22.344Z,16.93
2019-05-26T05:08:10.151Z,16.60
2019-05-26T05:10:58.006Z,13.70
2019-05-26T05:13:46.085Z,14.97
2019-05-26T05:16:33.969Z,13.30
2019-05-26T05:19:21.849Z,11.20
2019-05-26T05:22:09.721Z,11.27
2019-05-26T05:24:57.452Z,11.03
2019-05-26T05:27:45.891Z,9.27
2019-05-26T05:30:33.661Z,9.13
2019-05-26T05:33:21.725Z,8.60
2019-05-26T05:36:09.432Z,8.73
2019-05-26T05:38:56.974Z,11.00
2019-05-26T05:41:44.652Z,9.20
2019-05-26T05:44:32.670Z,7.17
2019-05-26T05:47:20.982Z,7.53
2019-05-26T05:50:11.705Z,7.90
2019-05-26T05:52:59.296Z,9.23
2019-05-26T05:55:47.192Z,7.57
2019-05-26T05:58:35.142Z,8.37
2019-05-26T06:01:22.950Z,8.57
2019-05-26T06:04:10.645Z,9.37
2019-05-26T06:06:58.313Z,9.40
2019-05-26T06:09:46.101Z,10.20
2019-05-26T06:12:34.211Z,9.80
2019-05-26T06:15:22.081Z,8.90
2019-05-26T06:18:09.950Z,9.83
2019-05-26T06:20:57.782Z,11.97
2019-05-26T06:23:45.765Z,11.73
2019-05-26T06:26:33.732Z,10.67
2019-05-26T06:29:21.659Z,10.77
2019-05-26T06:32:09.754Z,10.23
2019-05-26T06:34:58.024Z,9.40
2019-05-26T06:37:45.954Z,10.17
2019-05-26T06:40:33.809Z,11.97
2019-05-26T06:43:21.706Z,10.40
2019-05-26T06:46:09.711Z,8.40
2019-05-26T06:48:57.430Z,8.17
2019-05-26T06:51:45.485Z,7.90
2019-05-26T06:54:33.389Z,8.80
2019-05-26T06:57:20.950Z,8.57
2019-05-26T07:00:09.465Z,9.43
2019-05-26T07:02:57.186Z,9.00
2019-05-26T07:05:45.261Z,10.77
2019-05-26T07:08:33.358Z,7.53
2019-05-26T07:11:21.208Z,11.47
2019-05-26T07:14:09.213Z,8.60
2019-05-26T07:16:57.078Z,8.10
2019-05-26T07:19:45.160Z,9.77
2019-05-26T07:22:32.944Z,7.90
2019-05-26T07:25:20.976Z,7.90
2019-05-26T07:28:09.002Z,8.30
2019-05-26T07:30:56.877Z,9.23
2019-05-26T07:33:44.966Z,8.00
2019-05-26T07:36:32.608Z,9.30
2019-05-26T07:39:20.637Z,8.07
2019-05-26T07:42:10.950Z,7.83
2019-05-26T07:44:58.613Z,7.63
2019-05-26T07:47:46.479Z,8.43
2019-05-26T07:50:34.174Z,8.53
2019-05-26T07:53:22.081Z,8.17
2019-05-26T07:56:10.011Z,8.67
2019-05-26T07:58:57.646Z,9.67
2019-05-26T08:01:45.581Z,8.17
2019-05-26T08:04:33.831Z,7.80
2019-05-26T08:07:23.177Z,7.70
2019-05-26T08:10:11.628Z,9.23
2019-05-26T08:12:59.280Z,6.90
2019-05-26T08:15:47.175Z,8.13
2019-05-26T08:18:34.759Z,7.53
2019-05-26T08:21:22.421Z,7.97
2019-05-26T08:24:10.122Z,6.73
2019-05-26T08:26:57.934Z,9.37
2019-05-26T08:29:45.984Z,8.87
2019-05-26T08:32:33.879Z,8.77
2019-05-26T08:35:21.730Z,8.63
2019-05-26T08:38:22.215Z,8.03
2019-05-26T08:41:09.940Z,7.00
2019-05-26T08:43:57.950Z,8.67
2019-05-26T08:46:46.202Z,8.37
2019-05-26T08:49:34.192Z,7.50
2019-05-26T08:52:22.132Z,7.03
2019-05-26T08:55:10.200Z,7.43
2019-05-26T08:57:58.058Z,7.83
2019-05-26T09:00:46.009Z,8.23
2019-05-26T09:03:33.953Z,6.93
2019-05-26T09:06:21.750Z,7.67
2019-05-26T09:09:09.598Z,7.37
2019-05-26T09:11:57.605Z,7.90
2019-05-26T09:14:45.145Z,8.13
2019-05-26T09:17:32.990Z,6.93
2019-05-26T09:20:21.829Z,6.30
2019-05-26T09:23:09.456Z,4.93
2019-05-26T09:25:57.391Z,6.03
2019-05-26T09:28:45.342Z,6.63
2019-05-26T09:31:34.231Z,7.03
2019-05-26T09:34:22.249Z,6.40
2019-05-26T09:37:10.173Z,6.70
2019-05-26T09:39:58.181Z,5.83
2019-05-26T09:42:45.984Z,6.97
2019-05-26T09:45:33.697Z,5.97
2019-05-26T09:48:21.339Z,5.57
2019-05-26T09:51:09.043Z,6.53
2019-05-26T09:54:01.750Z,5.00
2019-05-26T09:56:46.943Z,5.47
2019-05-26T09:59:34.909Z,5.70
2019-05-26T10:02:22.719Z,5.63
2019-05-26T10:05:10.742Z,6.10
2019-05-26T10:07:58.669Z,3.60
2019-05-26T10:10:46.427Z,5.47
2019-05-26T10:13:34.335Z,5.20
2019-05-26T10:16:22.105Z,5.07
2019-05-26T10:19:09.845Z,5.27
2019-05-26T10:21:57.493Z,5.13
2019-05-26T10:24:45.454Z,3.97
2019-05-26T10:27:33.214Z,4.07
2019-05-26T10:30:21.063Z,4.20
2019-05-26T10:33:08.958Z,4.00
2019-05-26T10:35:56.931Z,4.23
2019-05-26T10:38:44.961Z,4.23
2019-05-26T10:41:32.957Z,3.90
2019-05-26T10:44:20.792Z,5.63
2019-05-26T10:47:08.725Z,3.77
2019-05-26T10:49:56.330Z,4.90
2019-05-26T10:52:44.094Z,3.40
2019-05-26T10:55:31.689Z,3.30
2019-05-26T10:58:19.346Z,3.20
2019-05-26T11:01:07.492Z,3.00
2019-05-26T11:03:55.491Z,2.87
2019-05-26T11:06:43.486Z,2.47
2019-05-26T11:09:32.568Z,2.20
2019-05-26T11:12:20.569Z,2.27
2019-05-26T11:15:09.236Z,2.30
2019-05-26T11:17:56.944Z,2.00
2019-05-26T11:20:44.893Z,5.63
2019-05-26T11:23:32.863Z,2.07
2019-05-26T11:26:20.646Z,2.93
2019-05-26T11:29:09.037Z,1.80
2019-05-26T11:31:56.772Z,2.23
2019-05-26T11:34:58.919Z,2.07
2019-05-26T11:37:34.488Z,1.77
2019-05-26T11:40:22.837Z,1.80
2019-05-26T11:43:16.652Z,1.67
2019-05-26T11:46:00.213Z,2.80
2019-05-26T11:48:47.957Z,2.13
2019-05-26T11:51:35.852Z,2.90
2019-05-26T11:54:23.857Z,2.27
2019-05-26T11:57:11.514Z,1.80
2019-05-26T11:59:59.541Z,3.33
2019-05-26T12:02:47.255Z,1.97
2019-05-26T12:05:35.115Z,2.03
2019-05-26T12:08:23.077Z,1.93
2019-05-26T12:11:11.114Z,2.20
2019-05-26T12:13:58.749Z,2.23
2019-05-26T12:16:46.369Z,2.00
2019-05-26T12:19:34.186Z,3.57
2019-05-26T12:22:22.229Z,1.83
2019-05-26T12:25:10.452Z,2.30
2019-05-26T12:27:58.444Z,2.20
2019-05-26T12:30:46.141Z,2.20
2019-05-26T12:33:34.100Z,1.90
2019-05-26T12:36:22.059Z,1.93
2019-05-26T12:39:10.069Z,2.63
2019-05-26T12:41:58.007Z,2.30
2019-05-26T12:44:49.615Z,2.20
2019-05-26T12:47:36.249Z,3.30
2019-05-26T12:50:24.129Z,2.30
2019-05-26T12:53:12.144Z,2.40
2019-05-26T12:55:59.919Z,2.00
2019-05-26T12:58:47.980Z,2.07
2019-05-26T13:01:35.853Z,3.03
2019-05-26T13:04:23.588Z,2.47
2019-05-26T13:07:11.509Z,2.37
2019-05-26T13:09:59.217Z,2.57
2019-05-26T13:12:47.057Z,2.60
2019-05-26T13:15:34.733Z,2.70
2019-05-26T13:18:22.998Z,3.07
2019-05-26T13:21:11.065Z,2.43
2019-05-26T13:23:58.879Z,2.60
2019-05-26T13:26:46.438Z,3.03
2019-05-26T13:29:34.302Z,3.40
2019-05-26T13:32:21.977Z,3.00
2019-05-26T13:35:10.138Z,2.50
2019-05-26T13:37:58.030Z,2.77
2019-05-26T13:40:46.028Z,2.43
2019-05-26T13:43:33.668Z,2.33
2019-05-26T13:46:21.626Z,2.67
2019-05-26T13:49:09.325Z,3.23
2019-05-26T13:51:57.413Z,2.63
2019-05-26T13:54:45.059Z,2.60
2019-05-26T13:57:32.968Z,2.07
2019-05-26T14:00:22.889Z,2.43
2019-05-26T14:03:10.827Z,2.50
2019-05-26T14:05:58.582Z,2.77
2019-05-26T14:08:46.469Z,3.83
2019-05-26T14:11:34.345Z,2.60
2019-05-26T14:14:22.405Z,3.30
2019-05-26T14:17:11.981Z,3.47
2019-05-26T14:20:01.322Z,2.93
2019-05-26T14:22:49.317Z,2.43
2019-05-26T14:25:37.335Z,3.13
2019-05-26T14:28:25.274Z,2.33
2019-05-26T14:31:13.131Z,2.40
2019-05-26T14:34:01.138Z,2.10
2019-05-26T14:36:48.601Z,2.20
2019-05-26T14:39:36.425Z,2.23
2019-05-26T14:42:24.332Z,2.60
2019-05-26T14:45:12.458Z,1.97
2019-05-26T14:48:00.225Z,3.30
2019-05-26T14:50:48.241Z,2.20
2019-05-26T14:53:35.949Z,3.23
2019-05-26T14:56:23.653Z,2.87
2019-05-26T14:59:11.716Z,2.47
2019-05-26T15:01:59.475Z,2.30
2019-05-26T15:04:47.240Z,2.20
2019-05-26T15:07:35.538Z,2.43
2019-05-26T15:10:23.642Z,2.33
2019-05-26T15:13:11.741Z,3.10
2019-05-26T15:16:09.239Z,2.20
2019-05-26T15:18:48.985Z,2.30
2019-05-26T15:21:36.925Z,2.20
2019-05-26T15:24:24.909Z,2.00
2019-05-26T15:27:12.585Z,3.17
2019-05-26T15:30:00.435Z,2.50
2019-05-26T15:32:48.317Z,2.07
2019-05-26T15:35:36.519Z,2.00
2019-05-26T15:38:24.526Z,2.07
2019-05-26T15:41:12.326Z,1.90
2019-05-26T15:44:00.246Z,1.93
2019-05-26T15:46:48.337Z,1.90
2019-05-26T15:49:36.337Z,2.60
2019-05-26T15:52:24.017Z,2.70
2019-05-26T15:55:12.577Z,2.30
2019-05-26T15:58:00.461Z,2.27
2019-05-26T16:00:48.259Z,2.10
2019-05-26T16:03:36.169Z,2.30
2019-05-26T16:06:23.821Z,2.03
2019-05-26T16:09:11.849Z,2.93
2019-05-26T16:11:59.891Z,2.00
2019-05-26T16:14:47.682Z,1.97
2019-05-26T16:17:38.556Z,2.00
2019-05-26T16:20:24.975Z,2.60
2019-05-26T16:23:13.118Z,2.37
2019-05-26T16:26:01.065Z,2.13
2019-05-26T16:28:48.917Z,2.53
2019-05-26T16:31:36.617Z,2.63
2019-05-26T16:34:24.713Z,2.37
2019-05-26T16:37:12.525Z,2.10
2019-05-26T16:40:00.495Z,2.57
2019-05-26T16:42:48.185Z,2.20
2019-05-26T16:45:37.117Z,1.80
2019-05-26T16:48:25.401Z,1.87
2019-05-26T16:51:13.461Z,2.03
2019-05-26T16:54:01.413Z,3.07
2019-05-26T16:56:49.602Z,2.30
2019-05-26T16:59:37.274Z,2.00
2019-05-26T17:02:25.159Z,1.97
2019-05-26T17:05:14.322Z,3.03
2019-05-26T17:08:02.406Z,2.00
2019-05-26T17:10:50.041Z,3.83
2019-05-26T17:13:37.821Z,2.77
2019-05-26T17:16:26.005Z,2.30
2019-05-26T17:19:13.916Z,2.17
2019-05-26T17:22:01.684Z,2.10
2019-05-26T17:24:49.501Z,2.10
2019-05-26T17:27:37.274Z,3.13
2019-05-26T17:30:25.376Z,2.93
2019-05-26T17:33:13.174Z,2.60
2019-05-26T17:36:01.122Z,2.53
2019-05-26T17:38:50.671Z,2.50
2019-05-26T17:41:38.427Z,2.30
2019-05-26T17:44:26.369Z,2.43
2019-05-26T17:47:28.875Z,2.37
2019-05-26T17:50:06.465Z,2.50
2019-05-26T17:52:54.313Z,2.27
2019-05-26T17:55:43.056Z,2.60
2019-05-26T17:58:30.792Z,2.50
2019-05-26T18:01:18.700Z,3.67
2019-05-26T18:04:06.564Z,4.07
2019-05-26T18:06:54.536Z,2.63
2019-05-26T18:09:44.639Z,2.90
2019-05-26T18:12:31.749Z,3.13
2019-05-26T18:15:19.790Z,2.40
2019-05-26T18:18:07.377Z,2.60
2019-05-26T18:20:55.421Z,2.77
2019-05-26T18:23:43.241Z,2.73
2019-05-26T18:26:34.696Z,2.60
2019-05-26T18:29:22.732Z,2.97
2019-05-26T18:32:10.584Z,3.23
2019-05-26T18:34:58.482Z,2.80
2019-05-26T18:37:46.048Z,2.30
2019-05-26T18:40:33.736Z,2.47
2019-05-26T18:43:21.802Z,2.60
2019-05-26T18:46:09.459Z,2.60
2019-05-26T18:48:57.029Z,3.37
2019-05-26T18:51:44.990Z,3.20
2019-05-26T18:54:32.760Z,2.67
2019-05-26T18:57:20.297Z,2.70
2019-05-26T19:00:10.542Z,2.60
2019-05-26T19:02:58.371Z,4.53
2019-05-26T19:05:46.301Z,3.33
2019-05-26T19:08:34.201Z,2.37
2019-05-26T19:11:21.904Z,2.90
2019-05-26T19:14:09.816Z,3.87
2019-05-26T19:16:57.743Z,2.93
2019-05-26T19:19:45.677Z,2.90
2019-05-26T19:22:33.526Z,2.70
2019-05-26T19:25:21.478Z,3.03
2019-05-26T19:28:09.597Z,2.80
2019-05-26T19:30:57.480Z,3.07
2019-05-26T19:33:45.078Z,2.83
2019-05-26T19:36:32.733Z,3.47
2019-05-26T19:39:20.933Z,2.60
2019-05-26T19:42:08.918Z,3.70
2019-05-26T19:44:56.636Z,2.63
2019-05-26T19:47:44.551Z,2.80
2019-05-26T19:50:32.389Z,4.23
2019-05-26T19:53:20.343Z,2.90
2019-05-26T19:56:08.148Z,4.93
2019-05-26T19:58:56.021Z,3.03
2019-05-26T20:01:44.101Z,3.57
2019-05-26T20:04:31.629Z,2.83
2019-05-26T20:07:19.341Z,3.10
2019-05-26T20:10:08.285Z,4.47
2019-05-26T20:12:56.324Z,4.30
2019-05-26T20:15:44.419Z,4.77
2019-05-26T20:18:32.041Z,4.07
2019-05-26T20:21:19.797Z,4.97
2019-05-26T20:24:08.012Z,6.40
2019-05-26T20:26:55.839Z,5.57
2019-05-26T20:29:43.545Z,4.70
2019-05-26T20:32:31.259Z,4.90
2019-05-26T20:35:19.383Z,6.13
2019-05-26T20:38:10.746Z,4.60
2019-05-26T20:40:56.969Z,4.97
2019-05-26T20:43:44.806Z,4.53
2019-05-26T20:46:32.901Z,5.30
2019-05-26T20:49:20.745Z,4.77
2019-05-26T20:52:08.353Z,4.60
2019-05-26T20:54:56.111Z,5.33
2019-05-26T20:57:44.406Z,5.07
2019-05-26T21:00:32.289Z,5.07
2019-05-26T21:03:20.174Z,12.33
2019-05-26T21:06:08.121Z,7.90
2019-05-26T21:08:55.973Z,4.90
2019-05-26T21:11:44.141Z,4.77
2019-05-26T21:14:31.745Z,4.57
2019-05-26T21:17:19.723Z,5.13
2019-05-26T21:20:08.193Z,5.03
2019-05-26T21:22:55.890Z,5.97
2019-05-26T21:25:43.787Z,5.23
2019-05-26T21:28:31.665Z,4.90
2019-05-26T21:31:19.797Z,5.03
2019-05-26T21:34:07.768Z,6.10
2019-05-26T21:36:55.721Z,7.47
2019-05-26T21:39:43.967Z,7.07
2019-05-26T21:42:31.902Z,5.57
2019-05-26T21:45:20.225Z,4.80
2019-05-26T21:48:07.784Z,7.13
2019-05-26T21:50:55.555Z,6.17
2019-05-26T21:53:43.513Z,6.50
2019-05-26T21:56:31.234Z,5.70
2019-05-26T21:59:19.193Z,7.37
2019-05-26T22:02:07.316Z,5.00
2019-05-26T22:04:55.191Z,6.30
2019-05-26T22:07:43.286Z,4.87
2019-05-26T22:10:31.229Z,5.40
2019-05-26T22:13:19.157Z,5.87
2019-05-26T22:16:07.210Z,5.10
2019-05-26T22:18:55.161Z,5.60
2019-05-26T22:21:43.090Z,7.87
2019-05-26T22:24:30.790Z,7.73
2019-05-26T22:27:18.648Z,5.30
2019-05-26T22:30:09.864Z,5.30
2019-05-26T22:32:57.629Z,5.53
2019-05-26T22:35:45.501Z,5.47
2019-05-26T22:38:33.473Z,5.50
2019-05-26T22:41:21.525Z,6.07
2019-05-26T22:44:09.285Z,5.13
2019-05-26T22:46:56.962Z,5.43
2019-05-26T22:49:44.848Z,5.93
2019-05-26T22:52:32.865Z,6.80
2019-05-26T22:55:20.716Z,6.73
2019-05-26T22:58:08.601Z,5.67
2019-05-26T23:00:56.480Z,6.20
2019-05-26T23:03:44.633Z,5.53
2019-05-26T23:06:32.417Z,5.80
2019-05-26T23:09:20.033Z,7.30
2019-05-26T23:12:07.705Z,6.13
2019-05-26T23:14:55.789Z,7.73
2019-05-26T23:17:43.821Z,6.50
2019-05-26T23:20:31.674Z,5.37
2019-05-26T23:23:19.449Z,6.37
2019-05-26T23:26:07.497Z,5.57
2019-05-26T23:28:55.212Z,6.83
2019-05-26T23:31:43.085Z,5.50
2019-05-26T23:34:31.131Z,5.37
2019-05-26T23:37:19.237Z,5.67
2019-05-26T23:40:07.549Z,7.87
2019-05-26T23:42:55.313Z,5.80
2019-05-26T23:45:43.140Z,6.10
2019-05-26T23:48:31.040Z,5.63
2019-05-26T23:51:18.881Z,5.97
2019-05-26T23:54:06.800Z,5.10
2019-05-26T23:56:54.486Z,5.40
2019-05-26T23:59:42.437Z,6.13
